createdAt,value
2019-06-10T00:00:36.555Z,70.38
2019-06-10T00:03:42.173Z,70.66
2019-06-10T00:06:46.112Z,70.77
2019-06-10T00:09:51.164Z,70.78
2019-06-10T00:12:55.486Z,71.04
2019-06-10T00:16:02.664Z,71.53
2019-06-10T00:19:06.781Z,71.55
2019-06-10T00:22:11.859Z,71.64
2019-06-10T00:25:15.860Z,71.85
2019-06-10T00:28:21.778Z,71.89
2019-06-10T00:31:25.276Z,73.63
2019-06-10T00:34:31.165Z,74.45
2019-06-10T00:37:35.131Z,74.88
2019-06-10T00:40:41.581Z,74.91
2019-06-10T00:43:45.160Z,74.61
2019-06-10T00:46:51.407Z,75.42
2019-06-10T00:49:54.981Z,76.42
2019-06-10T00:53:01.331Z,76.48
2019-06-10T00:56:06.763Z,76.24
2019-06-10T00:59:14.798Z,76.39
2019-06-10T01:02:18.057Z,76.15
2019-06-10T01:05:22.224Z,76.48
2019-06-10T01:08:26.140Z,76.59
2019-06-10T01:11:31.186Z,76.73
2019-06-10T01:14:34.975Z,76.15
2019-06-10T01:17:41.578Z,76.15
2019-06-10T01:20:45.313Z,75.85
2019-06-10T01:23:51.004Z,75.88
2019-06-10T01:26:55.048Z,76.35
2019-06-10T01:30:01.500Z,76.35
2019-06-10T01:33:06.287Z,76.72
2019-06-10T01:36:12.587Z,77.76
2019-06-10T01:39:16.863Z,78.44
2019-06-10T01:42:22.048Z,78.89
2019-06-10T01:45:25.976Z,79.08
2019-06-10T01:48:43.283Z,79.11
2019-06-10T01:51:36.080Z,78.82
2019-06-10T01:54:42.067Z,78.82
2019-06-10T01:57:45.931Z,79.32
2019-06-10T02:01:17.423Z,79.09
2019-06-10T02:04:22.216Z,79.29
2019-06-10T02:07:25.919Z,79.12
2019-06-10T02:10:31.073Z,78.76
2019-06-10T02:13:35.147Z,78.76
2019-06-10T02:16:41.303Z,79.29
2019-06-10T02:19:44.647Z,79.82
2019-06-10T02:22:48.497Z,79.82
2019-06-10T02:25:52.691Z,79.71
2019-06-10T02:28:56.875Z,79.69
2019-06-10T02:32:04.828Z,80.08
2019-06-10T02:35:13.600Z,80.28
2019-06-10T02:38:21.430Z,80.28
2019-06-10T02:41:28.245Z,80.85
2019-06-10T02:44:32.475Z,81.19
2019-06-10T02:47:37.007Z,81.27
2019-06-10T02:51:04.305Z,80.96
2019-06-10T02:54:08.562Z,80.96
2019-06-10T02:57:14.572Z,80.99
2019-06-10T03:00:26.722Z,80.99
2019-06-10T03:03:36.027Z,80.60
2019-06-10T03:06:38.516Z,80.60
2019-06-10T03:09:36.311Z,80.65
2019-06-10T03:12:42.385Z,80.65
2019-06-10T03:15:52.243Z,80.63
2019-06-10T03:18:56.370Z,80.60
2019-06-10T03:22:02.608Z,80.53
2019-06-10T03:25:06.264Z,80.51
2019-06-10T03:28:12.093Z,80.55
2019-06-10T03:31:18.833Z,80.99
2019-06-10T03:34:30.730Z,80.90
2019-06-10T03:37:28.250Z,80.90
2019-06-10T03:40:32.769Z,80.82
2019-06-10T03:43:37.078Z,81.05
2019-06-10T03:46:43.129Z,81.10
2019-06-10T03:49:52.656Z,80.67
2019-06-10T03:52:52.821Z,80.67
2019-06-10T03:55:57.029Z,80.81
2019-06-10T03:59:02.889Z,80.82
2019-06-10T04:02:06.935Z,80.89
2019-06-10T04:05:13.213Z,81.69
2019-06-10T04:08:17.429Z,81.56
2019-06-10T04:11:24.063Z,81.40
2019-06-10T04:14:28.495Z,81.57
2019-06-10T04:17:33.428Z,81.57
2019-06-10T04:20:37.377Z,81.62
2019-06-10T04:23:42.517Z,82.12
2019-06-10T04:26:47.236Z,82.10
2019-06-10T04:29:52.379Z,81.96
2019-06-10T04:32:56.573Z,82.02
2019-06-10T04:36:02.870Z,81.67
2019-06-10T04:39:07.177Z,81.07
2019-06-10T04:42:12.963Z,80.77
2019-06-10T04:45:18.557Z,80.62
2019-06-10T04:48:23.511Z,81.00
2019-06-10T04:51:29.714Z,81.25
2019-06-10T04:54:33.951Z,81.68
2019-06-10T04:57:37.848Z,80.58
2019-06-10T05:00:42.889Z,77.85
2019-06-10T05:03:47.050Z,73.99
2019-06-10T05:06:52.664Z,70.12
2019-06-10T05:09:57.059Z,66.66
2019-06-10T05:13:03.135Z,68.51
2019-06-10T05:16:07.177Z,66.66
2019-06-10T05:19:12.880Z,69.73
2019-06-10T05:22:17.631Z,72.53
2019-06-10T05:25:22.789Z,73.17
2019-06-10T05:28:28.739Z,70.15
2019-06-10T05:31:34.962Z,66.60
2019-06-10T05:34:38.818Z,62.13
2019-06-10T05:37:42.676Z,59.53
2019-06-10T05:40:46.944Z,57.96
2019-06-10T05:43:52.242Z,56.58
2019-06-10T05:46:56.858Z,54.33
2019-06-10T05:50:03.214Z,53.99
2019-06-10T05:53:06.704Z,53.49
2019-06-10T05:56:12.638Z,53.01
2019-06-10T05:59:16.145Z,51.68
2019-06-10T06:02:22.321Z,51.60
2019-06-10T06:05:26.340Z,50.90
2019-06-10T06:08:33.362Z,52.46
2019-06-10T06:11:37.683Z,54.86
2019-06-10T06:14:42.653Z,57.92
2019-06-10T06:17:46.794Z,60.18
2019-06-10T06:20:52.609Z,61.60
2019-06-10T06:23:56.880Z,62.13
2019-06-10T06:27:02.522Z,62.13
2019-06-10T06:30:13.780Z,62.23
2019-06-10T06:33:13.821Z,62.51
2019-06-10T06:36:17.864Z,63.28
2019-06-10T06:39:24.136Z,63.78
2019-06-10T06:42:27.452Z,64.48
2019-06-10T06:45:34.381Z,65.60
2019-06-10T06:48:40.311Z,66.37
2019-06-10T06:51:54.677Z,65.85
2019-06-10T06:54:52.897Z,64.64
2019-06-10T06:57:56.417Z,63.41
2019-06-10T07:01:09.896Z,62.49
2019-06-10T07:04:06.851Z,62.88
2019-06-10T07:07:13.182Z,62.66
2019-06-10T07:10:17.436Z,62.47
2019-06-10T07:13:22.313Z,60.18
2019-06-10T07:16:26.834Z,58.78
2019-06-10T07:19:33.993Z,56.89
2019-06-10T07:22:40.057Z,55.72
2019-06-10T07:25:47.237Z,55.33
2019-06-10T07:28:49.288Z,54.89
2019-06-10T07:31:53.926Z,54.82
2019-06-10T07:34:57.848Z,54.84
2019-06-10T07:38:02.980Z,54.76
2019-06-10T07:41:07.356Z,54.20
2019-06-10T07:44:12.457Z,54.02
2019-06-10T07:47:16.844Z,53.39
2019-06-10T07:50:22.677Z,53.86
2019-06-10T07:53:26.950Z,53.86
2019-06-10T07:56:36.811Z,52.91
2019-06-10T07:59:37.398Z,52.34
2019-06-10T08:02:44.208Z,51.58
2019-06-10T08:05:47.307Z,50.99
2019-06-10T08:08:53.162Z,50.76
2019-06-10T08:11:57.163Z,48.01
2019-06-10T08:15:02.794Z,45.45
2019-06-10T08:18:07.141Z,46.02
2019-06-10T08:21:12.222Z,45.93
2019-06-10T08:24:16.352Z,47.25
2019-06-10T08:27:22.714Z,48.31
2019-06-10T08:30:27.770Z,49.29
2019-06-10T08:33:33.115Z,48.90
2019-06-10T08:36:39.484Z,48.40
2019-06-10T08:40:23.487Z,48.23
2019-06-10T08:44:05.884Z,48.66
2019-06-10T08:47:41.146Z,49.12
2019-06-10T08:51:05.168Z,49.21
2019-06-10T08:54:55.488Z,48.43
2019-06-10T08:58:33.019Z,48.16
2019-06-10T09:05:26.841Z,49.54
2019-06-10T09:08:32.635Z,49.97
2019-06-10T09:11:36.680Z,50.39
2019-06-10T09:14:44.019Z,50.94
2019-06-10T09:17:49.582Z,51.54
2019-06-10T09:20:55.979Z,51.93
2019-06-10T09:23:59.967Z,52.33
2019-06-10T09:27:05.181Z,52.48
2019-06-10T09:30:09.801Z,53.01
2019-06-10T09:33:13.646Z,53.50
2019-06-10T09:36:17.503Z,53.09
2019-06-10T09:39:23.010Z,52.49
2019-06-10T09:42:27.728Z,51.43
2019-06-10T09:45:33.270Z,51.20
2019-06-10T09:48:37.400Z,51.47
2019-06-10T09:51:46.744Z,50.72
2019-06-10T09:54:50.857Z,50.08
2019-06-10T09:57:59.633Z,50.23
2019-06-10T10:00:59.279Z,50.76
2019-06-10T10:04:04.792Z,50.10
2019-06-10T10:07:09.181Z,49.55
2019-06-10T10:10:13.380Z,49.05
2019-06-10T10:13:17.963Z,48.42
2019-06-10T10:16:23.095Z,48.08
2019-06-10T10:19:27.577Z,48.71
2019-06-10T10:22:33.549Z,49.72
2019-06-10T10:25:38.187Z,50.29
2019-06-10T10:28:43.904Z,50.66
2019-06-10T10:31:50.752Z,52.23
2019-06-10T10:34:56.348Z,53.58
2019-06-10T10:37:59.929Z,54.35
2019-06-10T10:41:04.782Z,54.48
2019-06-10T10:44:09.226Z,54.43
2019-06-10T10:47:13.686Z,54.29
2019-06-10T10:50:22.399Z,54.25
2019-06-10T10:53:25.594Z,51.78
2019-06-10T10:56:29.455Z,49.66
2019-06-10T10:59:33.405Z,48.98
2019-06-10T11:02:37.300Z,48.69
2019-06-10T11:05:44.713Z,48.49
2019-06-10T11:08:48.325Z,47.90
2019-06-10T11:11:55.001Z,47.06
2019-06-10T11:15:01.890Z,46.98
2019-06-10T11:18:07.232Z,46.11
2019-06-10T11:21:13.221Z,45.30
2019-06-10T11:24:32.705Z,45.16
2019-06-10T11:27:22.823Z,45.36
2019-06-10T11:30:28.394Z,46.25
2019-06-10T11:33:33.651Z,46.86
2019-06-10T11:36:37.544Z,48.60
2019-06-10T11:39:41.477Z,49.97
2019-06-10T11:42:46.284Z,51.25
2019-06-10T11:45:55.127Z,51.78
2019-06-10T11:48:58.529Z,51.91
2019-06-10T11:52:03.207Z,52.14
2019-06-10T11:55:15.118Z,51.75
2019-06-10T11:58:14.228Z,50.57
2019-06-10T12:01:18.401Z,49.56
2019-06-10T12:04:23.899Z,48.93
2019-06-10T12:07:27.903Z,48.83
2019-06-10T12:10:33.018Z,47.79
2019-06-10T12:13:37.015Z,47.08
2019-06-10T12:19:46.811Z,45.57
2019-06-10T12:22:54.818Z,44.67
2019-06-10T12:25:59.290Z,43.83
2019-06-10T12:29:05.725Z,43.24
2019-06-10T12:32:09.088Z,43.63
2019-06-10T12:35:13.768Z,44.56
2019-06-10T12:38:17.914Z,44.92
2019-06-10T12:41:23.199Z,45.00
2019-06-10T12:44:27.419Z,45.04
2019-06-10T12:47:33.275Z,45.19
2019-06-10T12:50:37.332Z,44.96
2019-06-10T12:53:43.221Z,44.63
2019-06-10T12:56:47.322Z,44.21
2019-06-10T12:59:52.277Z,44.63
2019-06-10T13:02:57.379Z,45.02
2019-06-10T13:06:07.474Z,45.34
2019-06-10T13:09:12.899Z,45.88
2019-06-10T13:12:16.651Z,46.07
2019-06-10T13:15:22.154Z,46.05
2019-06-10T13:18:27.250Z,45.98
2019-06-10T13:21:32.991Z,45.97
2019-06-10T13:24:37.184Z,46.15
2019-06-10T13:27:42.835Z,46.49
2019-06-10T13:30:47.040Z,46.85
2019-06-10T13:33:52.928Z,47.17
2019-06-10T13:36:56.907Z,47.28
2019-06-10T13:40:02.269Z,47.31
2019-06-10T13:43:08.022Z,47.56
2019-06-10T13:46:12.320Z,47.83
2019-06-10T13:49:16.760Z,48.21
2019-06-10T13:52:23.143Z,48.40
2019-06-10T13:55:26.221Z,48.47
2019-06-10T13:58:30.232Z,48.74
2019-06-10T14:01:35.154Z,48.99
2019-06-10T14:04:39.163Z,49.19
2019-06-10T14:07:43.504Z,49.13
2019-06-10T14:10:48.396Z,49.03
2019-06-10T14:13:52.746Z,48.69
2019-06-10T14:16:57.046Z,48.31
2019-06-10T14:20:01.883Z,47.97
2019-06-10T14:23:06.319Z,47.67
2019-06-10T14:26:12.628Z,47.45
2019-06-10T14:29:16.991Z,47.48
2019-06-10T14:32:22.373Z,47.49
2019-06-10T14:35:26.981Z,47.49
2019-06-10T14:38:32.700Z,47.56
2019-06-10T14:41:37.059Z,47.54
2019-06-10T14:44:42.153Z,47.39
2019-06-10T14:47:46.413Z,47.50
2019-06-10T14:50:50.842Z,47.60
2019-06-10T14:53:54.854Z,47.47
2019-06-10T14:56:58.759Z,47.70
2019-06-10T15:00:03.226Z,47.52
2019-06-10T15:03:09.425Z,47.91
2019-06-10T15:06:13.533Z,48.12
2019-06-10T15:09:18.126Z,47.84
2019-06-10T15:12:22.899Z,47.64
2019-06-10T15:15:27.266Z,47.54
2019-06-10T15:18:33.017Z,47.73
2019-06-10T15:21:37.487Z,47.93
2019-06-10T15:24:42.747Z,48.24
2019-06-10T15:27:47.420Z,48.73
2019-06-10T15:30:52.467Z,48.90
2019-06-10T15:33:56.680Z,49.25
2019-06-10T15:37:02.822Z,49.60
2019-06-10T15:40:09.628Z,49.93
2019-06-10T15:43:13.913Z,50.04
2019-06-10T15:46:19.187Z,49.62
2019-06-10T15:49:26.069Z,49.16
2019-06-10T15:52:29.479Z,48.32
2019-06-10T15:55:55.553Z,47.35
2019-06-10T15:58:39.556Z,46.88
2019-06-10T16:01:44.208Z,46.76
2019-06-10T16:04:48.195Z,46.67
2019-06-10T16:07:53.069Z,48.01
2019-06-10T16:10:57.094Z,48.81
2019-06-10T16:14:02.873Z,49.58
2019-06-10T16:17:07.643Z,50.11
2019-06-10T16:20:13.160Z,50.66
2019-06-10T16:23:17.832Z,50.61
2019-06-10T16:26:25.289Z,50.41
2019-06-10T16:29:28.152Z,49.99
2019-06-10T16:32:32.958Z,49.41
2019-06-10T16:35:36.959Z,48.95
2019-06-10T16:38:42.309Z,48.71
2019-06-10T16:41:46.732Z,49.02
2019-06-10T16:44:52.798Z,49.47
2019-06-10T16:47:56.483Z,50.01
2019-06-10T16:51:02.993Z,50.49
2019-06-10T16:54:06.235Z,50.70
2019-06-10T16:57:12.185Z,51.00
2019-06-10T17:00:16.412Z,51.36
2019-06-10T17:03:24.665Z,52.14
2019-06-10T17:06:26.913Z,53.05
2019-06-10T17:09:32.823Z,53.40
2019-06-10T17:12:37.029Z,53.76
2019-06-10T17:15:42.381Z,54.58
2019-06-10T17:18:46.381Z,55.03
2019-06-10T17:21:52.765Z,55.25
2019-06-10T17:24:56.331Z,55.31
2019-06-10T17:28:15.126Z,55.37
2019-06-10T17:31:07.195Z,56.04
2019-06-10T17:34:13.169Z,56.16
2019-06-10T17:37:17.853Z,56.52
2019-06-10T17:40:23.417Z,56.56
2019-06-10T17:43:29.368Z,56.65
2019-06-10T17:46:35.287Z,57.06
2019-06-10T17:49:41.852Z,58.07
2019-06-10T17:52:45.617Z,59.03
2019-06-10T17:55:52.430Z,59.26
2019-06-10T17:58:58.068Z,60.00
2019-06-10T18:02:03.021Z,60.78
2019-06-10T18:05:08.390Z,61.84
2019-06-10T18:08:13.077Z,62.41
2019-06-10T18:11:16.996Z,62.87
2019-06-10T18:14:22.955Z,63.13
2019-06-10T18:17:28.701Z,63.45
2019-06-10T18:20:34.015Z,63.91
2019-06-10T18:23:38.875Z,64.24
2019-06-10T18:26:43.103Z,64.87
2019-06-10T18:29:47.158Z,65.31
2019-06-10T18:32:52.560Z,65.60
2019-06-10T18:35:56.591Z,65.59
2019-06-10T18:39:02.976Z,65.74
2019-06-10T18:42:06.973Z,65.80
2019-06-10T18:45:14.259Z,65.78
2019-06-10T18:48:18.336Z,65.89
2019-06-10T18:51:23.052Z,66.05
2019-06-10T18:54:27.769Z,65.94
2019-06-10T18:57:33.534Z,65.92
2019-06-10T19:00:53.478Z,66.12
2019-06-10T19:03:43.987Z,66.45
2019-06-10T19:06:48.983Z,66.41
2019-06-10T19:09:53.141Z,66.33
2019-06-10T19:12:57.501Z,66.28
2019-06-10T19:16:02.362Z,66.36
2019-06-10T19:19:08.276Z,66.72
2019-06-10T19:22:13.222Z,66.65
2019-06-10T19:25:18.316Z,66.67
2019-06-10T19:28:23.177Z,66.65
2019-06-10T19:31:27.011Z,66.71
2019-06-10T19:34:31.304Z,66.93
2019-06-10T19:37:37.387Z,66.97
2019-06-10T19:40:42.889Z,67.09
2019-06-10T19:43:47.757Z,67.32
2019-06-10T19:46:52.220Z,67.46
2019-06-10T19:49:56.124Z,67.86
2019-06-10T19:53:02.469Z,68.07
2019-06-10T19:56:05.709Z,68.27
2019-06-10T19:59:09.927Z,68.22
2019-06-10T20:02:13.920Z,68.20
2019-06-10T20:05:18.595Z,68.24
2019-06-10T20:08:22.798Z,68.11
2019-06-10T20:11:26.747Z,68.22
2019-06-10T20:14:32.248Z,68.30
2019-06-10T20:17:37.504Z,68.42
2019-06-10T20:20:45.635Z,68.61
2019-06-10T20:24:06.587Z,68.79
2019-06-10T20:27:10.807Z,69.14
2019-06-10T20:30:25.333Z,69.35
2019-06-10T20:33:36.995Z,69.58
2019-06-10T20:36:42.453Z,69.79
2019-06-10T20:39:47.727Z,69.99
2019-06-10T20:42:51.744Z,70.28
2019-06-10T20:45:58.220Z,70.55
2019-06-10T20:49:03.317Z,70.82
2019-06-10T20:52:12.223Z,71.01
2019-06-10T20:55:14.475Z,71.12
2019-06-10T20:58:19.004Z,71.13
2019-06-10T21:01:25.230Z,71.07
2019-06-10T21:04:29.146Z,71.14
2019-06-10T21:07:34.529Z,71.24
2019-06-10T21:10:39.863Z,71.25
2019-06-10T21:13:48.660Z,71.36
2019-06-10T21:16:53.310Z,71.36
2019-06-10T21:19:56.128Z,71.34
2019-06-10T21:23:03.083Z,71.56
2019-06-10T21:26:06.815Z,71.92
2019-06-10T21:29:12.761Z,72.09
2019-06-10T21:32:16.544Z,72.30
2019-06-10T21:35:20.706Z,72.40
2019-06-10T21:38:24.628Z,72.51
2019-06-10T21:41:28.459Z,72.59
2019-06-10T21:44:32.389Z,72.68
2019-06-10T21:47:36.687Z,72.62
2019-06-10T21:50:43.813Z,72.62
2019-06-10T21:53:46.606Z,72.61
2019-06-10T21:56:54.094Z,72.36
2019-06-10T21:59:56.431Z,72.37
2019-06-10T22:03:02.192Z,72.21
2019-06-10T22:06:06.510Z,72.27
2019-06-10T22:09:12.479Z,72.16
2019-06-10T22:12:16.878Z,72.49
2019-06-10T22:15:22.617Z,72.49
2019-06-10T22:18:27.657Z,72.31
2019-06-10T22:21:32.699Z,72.17
2019-06-10T22:24:36.940Z,72.17
2019-06-10T22:27:42.109Z,72.05
2019-06-10T22:30:47.153Z,71.97
2019-06-10T22:33:54.279Z,72.05
2019-06-10T22:36:57.757Z,71.93
2019-06-10T22:40:03.276Z,71.67
2019-06-10T22:43:07.862Z,71.36
2019-06-10T22:46:11.803Z,71.24
2019-06-10T22:49:15.983Z,71.18
2019-06-10T22:52:22.955Z,71.24
2019-06-10T22:55:26.328Z,71.28
2019-06-10T22:58:30.543Z,71.30
2019-06-10T23:01:38.262Z,70.92
2019-06-10T23:04:40.027Z,70.66
2019-06-10T23:07:43.908Z,70.76
2019-06-10T23:10:48.507Z,70.76
2019-06-10T23:13:53.810Z,70.86
2019-06-10T23:17:00.020Z,71.11
2019-06-10T23:20:04.307Z,71.29
2019-06-10T23:23:08.175Z,71.46
2019-06-10T23:26:13.058Z,71.64
2019-06-10T23:29:17.644Z,71.84
2019-06-10T23:32:22.244Z,71.92
2019-06-10T23:35:26.500Z,72.14
2019-06-10T23:38:32.758Z,72.29
2019-06-10T23:41:36.574Z,72.37
2019-06-10T23:44:40.494Z,72.61
2019-06-10T23:47:45.014Z,72.46
2019-06-10T23:50:49.235Z,72.34
2019-06-10T23:53:56.430Z,72.18
2019-06-10T23:57:01.436Z,71.99
